Time;durP1;ratioP1;P1;durP2;ratioP2;P2;SDS_P1;SDS_P2;PMS_P1;PMS_P2;Temp;Humidity;BMP_temperature;BMP_pressure;BME280_temperature;BME280_humidity;BME280_pressure;Samples;Min_cycle;Max_cycle;Signal;HPM_P1;HPM_P2
2022/10/10 00:00:01;;;;;;;2.80;2.60;;;;;;;;;;4988671;28;20222;-57
2022/10/10 00:02:27;;;;;;;2.50;2.27;;;;;;;;;;4992818;28;20178;-56
2022/10/10 00:04:54;;;;;;;3.40;2.90;;;;;;;;;;4992522;28;20383;-55
2022/10/10 00:07:20;;;;;;;5.33;2.07;;;;;;;;;;5005818;28;20181;-57
2022/10/10 00:09:46;;;;;;;4.07;2.50;;;;;;;;;;4992780;28;20222;-56
2022/10/10 00:12:13;;;;;;;2.93;2.73;;;;;;;;;;4985453;28;20646;-56
2022/10/10 00:14:39;;;;;;;3.50;2.20;;;;;;;;;;4999506;28;20672;-57
2022/10/10 00:17:05;;;;;;;2.37;2.17;;;;;;;;;;4990913;28;20228;-56
2022/10/10 00:19:31;;;;;;;4.13;2.17;;;;;;;;;;4992079;28;20194;-55
2022/10/10 00:21:57;;;;;;;2.70;2.07;;;;;;;;;;4988027;28;20190;-56
2022/10/10 00:24:23;;;;;;;4.93;2.63;;;;;;;;;;4996574;28;20220;-56
2022/10/10 00:26:49;;;;;;;4.13;2.10;;;;;;;;;;4986016;28;20658;-55
2022/10/10 00:29:15;;;;;;;2.37;2.17;;;;;;;;;;4969905;28;20669;-55
2022/10/10 00:31:41;;;;;;;3.63;2.87;;;;;;;;;;4989113;28;20200;-57
2022/10/10 00:34:08;;;;;;;2.27;2.13;;;;;;;;;;4995757;28;20195;-56
2022/10/10 00:36:34;;;;;;;2.63;2.07;;;;;;;;;;5006776;28;20171;-56
2022/10/10 00:39:00;;;;;;;3.20;2.70;;;;;;;;;;4995509;28;20203;-56
2022/10/10 00:41:27;;;;;;;3.63;2.23;;;;;;;;;;4987282;28;20203;-55
2022/10/10 00:44:11;;;;;;;2.40;2.20;;;;;;;;;;4992345;28;20194;-55
2022/10/10 00:46:37;;;;;;;2.17;2.03;;;;;;;;;;4980736;28;20188;-56
2022/10/10 00:49:06;;;;;;;3.37;2.30;;;;;;;;;;4994796;28;20966;-55
2022/10/10 00:51:32;;;;;;;3.57;2.30;;;;;;;;;;4987955;28;20653;-55
2022/10/10 00:54:03;;;;;;;2.10;1.80;;;;;;;;;;4994928;28;20641;-55
2022/10/10 00:56:35;;;;;;;2.30;2.07;;;;;;;;;;4976991;28;20180;-55
2022/10/10 00:59:03;;;;;;;2.37;2.17;;;;;;;;;;4986932;28;22054;-57
2022/10/10 01:01:29;;;;;;;2.07;1.97;;;;;;;;;;4997820;28;20203;-56
2022/10/10 01:03:59;;;;;;;2.47;1.90;;;;;;;;;;4997767;28;20302;-56
2022/10/10 01:06:25;;;;;;;4.40;2.30;;;;;;;;;;4996021;28;20210;-55
2022/10/10 01:08:51;;;;;;;2.30;2.10;;;;;;;;;;4999162;28;20253;-56
2022/10/10 01:11:33;;;;;;;3.43;2.10;;;;;;;;;;4987543;28;21266;-55
2022/10/10 01:14:04;;;;;;;2.20;2.00;;;;;;;;;;5001413;28;20301;-56
2022/10/10 01:16:35;;;;;;;2.20;2.00;;;;;;;;;;4983326;28;20585;-57
2022/10/10 01:19:27;;;;;;;3.47;2.10;;;;;;;;;;4996060;28;20241;-56
2022/10/10 01:21:53;;;;;;;2.53;2.33;;;;;;;;;;4989422;28;20666;-56
2022/10/10 01:24:30;;;;;;;2.30;2.10;;;;;;;;;;5008971;28;20171;-55
2022/10/10 01:27:26;;;;;;;3.50;1.90;;;;;;;;;;4981063;28;20239;-57
2022/10/10 01:29:53;;;;;;;1.80;1.70;;;;;;;;;;4973049;28;20657;-56
2022/10/10 01:32:29;;;;;;;2.03;1.83;;;;;;;;;;4995168;28;20641;-56
2022/10/10 01:34:56;;;;;;;2.67;1.80;;;;;;;;;;5006424;28;20250;-57
2022/10/10 01:37:28;;;;;;;3.90;2.40;;;;;;;;;;4994313;28;20198;-56
2022/10/10 01:40:23;;;;;;;2.07;1.93;;;;;;;;;;4998023;28;20225;-56
2022/10/10 01:42:51;;;;;;;5.00;2.20;;;;;;;;;;4966176;28;20267;-56
2022/10/10 01:45:17;;;;;;;2.03;1.90;;;;;;;;;;4963241;28;20630;-55
2022/10/10 01:47:43;;;;;;;2.30;2.10;;;;;;;;;;5000627;28;20679;-56
2022/10/10 01:50:12;;;;;;;2.90;2.30;;;;;;;;;;4989586;28;20194;-56
2022/10/10 01:52:57;;;;;;;3.23;2.40;;;;;;;;;;4989903;28;20601;-56
2022/10/10 01:55:41;;;;;;;2.47;2.27;;;;;;;;;;4990872;28;20218;-57
2022/10/10 01:58:27;;;;;;;2.20;2.10;;;;;;;;;;4994018;28;20183;-55
2022/10/10 02:01:11;;;;;;;2.97;2.40;;;;;;;;;;4995170;28;20203;-56
2022/10/10 02:03:41;;;;;;;3.17;2.60;;;;;;;;;;4981869;28;20189;-56
2022/10/10 02:06:10;;;;;;;2.43;2.00;;;;;;;;;;5004573;28;20187;-56
2022/10/10 02:08:39;;;;;;;2.00;1.80;;;;;;;;;;4986110;28;20569;-56
2022/10/10 02:11:08;;;;;;;4.50;2.23;;;;;;;;;;4987439;28;20218;-56
2022/10/10 02:13:44;;;;;;;2.33;1.93;;;;;;;;;;4993547;28;20175;-55
2022/10/10 02:16:20;;;;;;;2.77;2.07;;;;;;;;;;5000194;28;20601;-57
2022/10/10 02:18:47;;;;;;;2.10;1.90;;;;;;;;;;4986707;28;20186;-57
2022/10/10 02:21:14;;;;;;;2.30;2.10;;;;;;;;;;4995493;28;20519;-56
2022/10/10 02:23:42;;;;;;;2.47;2.10;;;;;;;;;;5005110;28;20538;-57
2022/10/10 02:26:10;;;;;;;2.13;1.90;;;;;;;;;;4995755;28;20671;-56
2022/10/10 02:28:38;;;;;;;1.80;1.70;;;;;;;;;;4995578;28;20203;-57
2022/10/10 02:31:12;;;;;;;1.80;1.70;;;;;;;;;;5009589;28;20174;-57
2022/10/10 02:33:45;;;;;;;2.80;1.97;;;;;;;;;;4988921;28;20179;-58
2022/10/10 02:36:12;;;;;;;2.70;2.03;;;;;;;;;;4991068;28;20235;-56
2022/10/10 02:38:39;;;;;;;3.43;2.43;;;;;;;;;;4978850;28;20210;-58
2022/10/10 02:41:06;;;;;;;3.00;2.10;;;;;;;;;;5001599;28;20641;-56
2022/10/10 02:43:34;;;;;;;3.80;1.90;;;;;;;;;;4992532;28;20179;-58
2022/10/10 02:46:05;;;;;;;2.17;1.97;;;;;;;;;;4988623;28;20545;-56
2022/10/10 02:48:32;;;;;;;2.27;1.87;;;;;;;;;;4983853;28;20182;-56
2022/10/10 02:50:58;;;;;;;2.40;1.90;;;;;;;;;;4995800;28;20436;-57
2022/10/10 02:53:24;;;;;;;4.17;2.13;;;;;;;;;;5004007;28;20190;-55
2022/10/10 02:55:50;;;;;;;2.03;1.90;;;;;;;;;;4991468;28;20171;-56
2022/10/10 02:58:16;;;;;;;2.07;1.87;;;;;;;;;;4972567;28;20183;-57
2022/10/10 03:00:42;;;;;;;2.17;2.00;;;;;;;;;;4986889;28;20712;-56
2022/10/10 03:03:08;;;;;;;2.53;2.20;;;;;;;;;;4971728;28;20215;-56
2022/10/10 03:05:34;;;;;;;2.13;1.80;;;;;;;;;;4988499;28;20588;-56
2022/10/10 03:08:00;;;;;;;2.50;2.30;;;;;;;;;;4972436;28;20183;-57
2022/10/10 03:10:26;;;;;;;2.20;2.00;;;;;;;;;;4999188;28;20298;-55
2022/10/10 03:12:53;;;;;;;2.30;2.10;;;;;;;;;;4971731;28;20706;-56
2022/10/10 03:15:19;;;;;;;3.00;1.90;;;;;;;;;;4971132;28;20654;-57
2022/10/10 03:17:45;;;;;;;2.87;2.10;;;;;;;;;;4971246;28;20648;-57
2022/10/10 03:20:11;;;;;;;2.50;2.00;;;;;;;;;;4986836;28;20257;-56
2022/10/10 03:22:37;;;;;;;3.23;2.20;;;;;;;;;;4989819;28;20186;-58
2022/10/10 03:25:03;;;;;;;3.20;2.33;;;;;;;;;;4988209;28;20186;-56
2022/10/10 03:27:29;;;;;;;3.03;2.37;;;;;;;;;;4988715;28;20175;-57
2022/10/10 03:29:55;;;;;;;2.37;2.17;;;;;;;;;;4988902;28;20186;-56
2022/10/10 03:32:22;;;;;;;2.13;2.03;;;;;;;;;;4970131;28;20591;-56
2022/10/10 03:34:48;;;;;;;2.20;1.97;;;;;;;;;;4988856;28;20658;-57
2022/10/10 03:37:14;;;;;;;3.40;2.27;;;;;;;;;;4988032;28;20576;-56
2022/10/10 03:39:40;;;;;;;3.77;2.27;;;;;;;;;;4986077;28;20179;-57
2022/10/10 03:42:06;;;;;;;2.40;2.10;;;;;;;;;;4989471;28;20255;-56
2022/10/10 03:44:32;;;;;;;2.73;2.53;;;;;;;;;;4975995;28;20186;-55
2022/10/10 03:46:59;;;;;;;4.07;2.27;;;;;;;;;;4996516;28;20261;-57
2022/10/10 03:49:25;;;;;;;2.77;1.87;;;;;;;;;;5001948;28;20240;-55
2022/10/10 03:51:52;;;;;;;1.97;1.77;;;;;;;;;;4973476;28;20713;-56
2022/10/10 03:54:18;;;;;;;2.53;2.20;;;;;;;;;;4990953;28;20190;-57
2022/10/10 03:56:44;;;;;;;2.83;2.13;;;;;;;;;;4990576;28;20269;-56
2022/10/10 03:59:11;;;;;;;2.63;2.43;;;;;;;;;;4995375;28;20198;-56
2022/10/10 04:01:37;;;;;;;2.43;2.23;;;;;;;;;;4997369;28;20206;-56
2022/10/10 04:04:04;;;;;;;4.33;2.03;;;;;;;;;;4995443;28;20179;-56
2022/10/10 04:06:36;;;;;;;2.50;2.30;;;;;;;;;;4992013;28;20206;-57
2022/10/10 04:09:03;;;;;;;2.87;2.50;;;;;;;;;;4989343;28;20560;-57
2022/10/10 04:11:37;;;;;;;2.60;2.40;;;;;;;;;;4989552;28;20639;-57
2022/10/10 04:14:03;;;;;;;4.07;2.33;;;;;;;;;;4972417;28;20189;-57
2022/10/10 04:16:29;;;;;;;2.50;2.30;;;;;;;;;;4991879;28;20182;-57
2022/10/10 04:18:55;;;;;;;4.00;2.23;;;;;;;;;;4997737;28;20535;-56
2022/10/10 04:21:21;;;;;;;3.73;3.20;;;;;;;;;;4993178;28;20560;-57
2022/10/10 04:23:47;;;;;;;2.50;2.30;;;;;;;;;;4997859;28;20639;-56
2022/10/10 04:26:13;;;;;;;3.00;2.40;;;;;;;;;;5001263;28;20755;-57
2022/10/10 04:28:39;;;;;;;4.03;2.50;;;;;;;;;;4994666;28;20175;-56
2022/10/10 04:31:05;;;;;;;3.47;2.50;;;;;;;;;;4989802;28;20186;-56
2022/10/10 04:33:32;;;;;;;2.43;2.23;;;;;;;;;;4991698;28;20237;-57
2022/10/10 04:35:58;;;;;;;3.53;2.50;;;;;;;;;;4992001;28;20657;-57
2022/10/10 04:38:24;;;;;;;4.07;2.77;;;;;;;;;;4997933;28;20203;-57
2022/10/10 04:40:50;;;;;;;2.57;2.20;;;;;;;;;;4988357;28;20230;-56
2022/10/10 04:43:17;;;;;;;4.47;2.80;;;;;;;;;;4998276;28;20230;-56
2022/10/10 04:45:43;;;;;;;3.27;2.77;;;;;;;;;;4993916;28;20580;-57
2022/10/10 04:48:09;;;;;;;2.40;2.20;;;;;;;;;;5003650;28;20582;-57
2022/10/10 04:50:35;;;;;;;2.87;2.67;;;;;;;;;;5006154;28;20178;-56
2022/10/10 04:53:01;;;;;;;2.40;2.30;;;;;;;;;;5002801;28;20190;-56
2022/10/10 04:55:27;;;;;;;3.40;2.33;;;;;;;;;;4992367;28;20223;-56
2022/10/10 04:57:53;;;;;;;2.83;2.47;;;;;;;;;;4992435;28;20670;-57
2022/10/10 05:00:19;;;;;;;2.57;2.33;;;;;;;;;;4994367;28;20210;-57
2022/10/10 05:02:45;;;;;;;2.80;2.53;;;;;;;;;;4990377;28;20172;-56
2022/10/10 05:05:11;;;;;;;4.17;2.87;;;;;;;;;;4993998;28;20541;-56
2022/10/10 05:07:37;;;;;;;3.40;2.20;;;;;;;;;;5001743;28;20696;-57
2022/10/10 05:10:05;;;;;;;3.00;2.70;;;;;;;;;;5002286;28;20225;-57
2022/10/10 05:12:31;;;;;;;3.00;2.30;;;;;;;;;;5001516;28;20179;-56
2022/10/10 05:14:58;;;;;;;2.93;2.13;;;;;;;;;;4986822;28;20646;-56
2022/10/10 05:17:24;;;;;;;2.50;2.30;;;;;;;;;;4990836;28;20179;-58
2022/10/10 05:19:51;;;;;;;3.30;2.83;;;;;;;;;;4999519;28;20233;-56
2022/10/10 05:22:17;;;;;;;2.60;2.40;;;;;;;;;;4974552;28;20187;-57
2022/10/10 05:24:43;;;;;;;2.73;2.53;;;;;;;;;;5000087;28;20642;-57
2022/10/10 05:27:09;;;;;;;3.93;3.63;;;;;;;;;;4991842;28;20168;-56
2022/10/10 05:29:35;;;;;;;3.50;3.10;;;;;;;;;;4990363;28;20183;-56
2022/10/10 05:32:01;;;;;;;3.87;2.90;;;;;;;;;;4972201;28;20599;-57
2022/10/10 05:34:27;;;;;;;5.53;2.70;;;;;;;;;;4975765;28;21013;-56
2022/10/10 05:36:55;;;;;;;3.10;2.90;;;;;;;;;;4987476;28;20649;-57
2022/10/10 05:39:21;;;;;;;4.30;2.83;;;;;;;;;;4988645;28;20175;-56
2022/10/10 05:41:47;;;;;;;3.20;2.90;;;;;;;;;;4986295;28;20629;-56
2022/10/10 05:44:13;;;;;;;4.03;3.07;;;;;;;;;;4996091;28;20170;-57
2022/10/10 05:46:39;;;;;;;3.73;3.13;;;;;;;;;;4991319;28;20651;-60
2022/10/10 05:49:05;;;;;;;3.43;3.13;;;;;;;;;;4979928;28;20538;-56
2022/10/10 05:51:32;;;;;;;4.63;3.30;;;;;;;;;;4989025;28;20187;-57
2022/10/10 05:53:58;;;;;;;6.00;3.30;;;;;;;;;;5001934;28;20182;-56
2022/10/10 05:56:24;;;;;;;3.43;3.13;;;;;;;;;;4990760;28;20266;-57
2022/10/10 05:58:50;;;;;;;2.63;2.43;;;;;;;;;;4995156;28;20175;-57
2022/10/10 06:01:16;;;;;;;4.07;3.03;;;;;;;;;;4996675;28;20264;-57
2022/10/10 06:03:42;;;;;;;4.10;2.73;;;;;;;;;;5000645;28;20225;-56
2022/10/10 06:06:09;;;;;;;3.93;2.57;;;;;;;;;;4991039;28;20859;-57
2022/10/10 06:08:35;;;;;;;4.67;3.03;;;;;;;;;;4989289;28;20179;-57
2022/10/10 06:11:03;;;;;;;5.70;3.00;;;;;;;;;;4974304;28;20706;-56
2022/10/10 06:13:29;;;;;;;3.77;3.20;;;;;;;;;;4995886;28;20606;-57
2022/10/10 06:15:55;;;;;;;3.10;2.80;;;;;;;;;;4994225;28;20600;-56
2022/10/10 06:18:21;;;;;;;5.00;3.43;;;;;;;;;;4989679;28;20646;-57
2022/10/10 06:20:47;;;;;;;3.70;3.03;;;;;;;;;;4984633;28;20729;-56
2022/10/10 06:23:13;;;;;;;5.33;3.30;;;;;;;;;;5010103;28;20178;-56
2022/10/10 06:25:39;;;;;;;3.20;2.90;;;;;;;;;;4992869;28;20615;-57
2022/10/10 06:28:06;;;;;;;3.50;3.20;;;;;;;;;;4989161;28;20176;-57
2022/10/10 06:30:33;;;;;;;3.80;3.50;;;;;;;;;;4988119;28;20667;-57
2022/10/10 06:33:00;;;;;;;3.00;2.70;;;;;;;;;;4979559;28;20178;-57
2022/10/10 06:35:26;;;;;;;3.70;3.00;;;;;;;;;;5008075;28;20569;-57
2022/10/10 06:37:52;;;;;;;5.43;2.67;;;;;;;;;;4990176;28;20543;-56
2022/10/10 06:40:18;;;;;;;3.13;2.70;;;;;;;;;;4988008;28;20199;-56
2022/10/10 06:42:44;;;;;;;3.77;3.10;;;;;;;;;;4987354;28;20179;-57
2022/10/10 06:45:11;;;;;;;3.30;3.00;;;;;;;;;;4998929;28;20179;-57
2022/10/10 06:47:38;;;;;;;3.67;3.10;;;;;;;;;;4986662;28;20179;-57
2022/10/10 06:50:04;;;;;;;3.33;3.03;;;;;;;;;;4970244;28;20247;-56
2022/10/10 06:52:30;;;;;;;4.03;3.10;;;;;;;;;;4987132;28;20191;-57
2022/10/10 06:54:56;;;;;;;7.33;3.13;;;;;;;;;;4978019;28;20681;-56
2022/10/10 06:57:23;;;;;;;4.20;2.93;;;;;;;;;;4986561;28;20661;-57
2022/10/10 06:59:49;;;;;;;3.93;3.13;;;;;;;;;;4988030;28;20699;-59
2022/10/10 07:02:15;;;;;;;3.50;3.20;;;;;;;;;;4985586;28;20300;-57
2022/10/10 07:04:41;;;;;;;5.70;3.50;;;;;;;;;;4990255;28;20186;-57
2022/10/10 07:07:08;;;;;;;3.40;2.87;;;;;;;;;;4999625;28;20178;-57
2022/10/10 07:09:34;;;;;;;4.00;3.60;;;;;;;;;;4987169;28;20223;-57
2022/10/10 07:12:00;;;;;;;4.07;3.03;;;;;;;;;;4986223;28;20187;-57
2022/10/10 07:14:26;;;;;;;3.73;3.17;;;;;;;;;;4967293;28;20274;-57
2022/10/10 07:16:52;;;;;;;5.00;3.73;;;;;;;;;;4984549;28;20230;-57
2022/10/10 07:19:20;;;;;;;4.00;3.20;;;;;;;;;;4985732;28;20179;-57
2022/10/10 07:21:46;;;;;;;3.00;2.80;;;;;;;;;;4987037;28;20568;-57
2022/10/10 07:24:12;;;;;;;3.93;3.57;;;;;;;;;;4985516;28;20202;-58
2022/10/10 07:26:38;;;;;;;4.60;3.20;;;;;;;;;;4985677;28;20183;-57
2022/10/10 07:29:05;;;;;;;4.13;2.80;;;;;;;;;;4970277;28;20183;-58
2022/10/10 07:31:32;;;;;;;3.80;3.33;;;;;;;;;;4982793;28;20433;-57
2022/10/10 07:33:58;;;;;;;3.77;3.23;;;;;;;;;;4980704;28;20713;-56
2022/10/10 07:36:24;;;;;;;4.07;3.33;;;;;;;;;;4983900;28;20183;-58
2022/10/10 07:38:51;;;;;;;3.93;3.40;;;;;;;;;;4981778;28;20296;-58
2022/10/10 07:41:18;;;;;;;4.23;3.27;;;;;;;;;;4986942;28;20564;-59
2022/10/10 07:43:45;;;;;;;3.83;3.53;;;;;;;;;;4987123;28;20610;-57
2022/10/10 07:46:15;;;;;;;7.23;3.60;;;;;;;;;;4985637;28;20270;-58
2022/10/10 07:48:41;;;;;;;3.67;3.37;;;;;;;;;;4985301;28;20579;-59
2022/10/10 07:51:08;;;;;;;3.83;3.43;;;;;;;;;;4985549;28;20186;-58
2022/10/10 07:53:34;;;;;;;5.17;4.07;;;;;;;;;;4986020;28;20186;-59
2022/10/10 07:56:00;;;;;;;5.97;3.77;;;;;;;;;;4969964;28;20214;-58
2022/10/10 07:58:26;;;;;;;4.23;3.27;;;;;;;;;;4986103;28;20645;-59
2022/10/10 08:01:01;;;;;;;4.17;3.10;;;;;;;;;;4987386;28;20199;-59
2022/10/10 08:03:27;;;;;;;4.20;3.50;;;;;;;;;;4968452;28;20598;-59
2022/10/10 08:05:53;;;;;;;4.33;3.90;;;;;;;;;;4984414;28;20709;-59
2022/10/10 08:08:19;;;;;;;6.83;4.27;;;;;;;;;;4981622;28;20189;-59
2022/10/10 08:10:45;;;;;;;5.30;3.60;;;;;;;;;;4986458;28;20333;-58
2022/10/10 08:13:11;;;;;;;4.63;3.27;;;;;;;;;;4968465;28;20194;-58
2022/10/10 08:15:40;;;;;;;3.77;3.10;;;;;;;;;;4981698;28;20183;-57
2022/10/10 08:18:06;;;;;;;5.57;3.80;;;;;;;;;;4966640;28;20245;-58
2022/10/10 08:20:33;;;;;;;4.80;3.43;;;;;;;;;;4983303;28;20206;-60
2022/10/10 08:22:59;;;;;;;4.67;3.60;;;;;;;;;;4985644;28;20757;-57
2022/10/10 08:25:26;;;;;;;4.03;3.57;;;;;;;;;;4985493;28;20349;-58
2022/10/10 08:27:52;;;;;;;4.07;3.23;;;;;;;;;;4962002;28;20171;-57
2022/10/10 08:30:18;;;;;;;4.97;3.43;;;;;;;;;;4981987;28;20198;-57
2022/10/10 08:32:44;;;;;;;4.03;3.47;;;;;;;;;;4967254;28;20184;-58
2022/10/10 08:35:11;;;;;;;6.63;3.57;;;;;;;;;;4982151;28;20262;-58
2022/10/10 08:37:37;;;;;;;5.73;3.63;;;;;;;;;;4968808;28;20270;-58
2022/10/10 08:40:04;;;;;;;4.67;3.80;;;;;;;;;;4983206;28;20199;-59
2022/10/10 08:42:38;;;;;;;6.87;3.20;;;;;;;;;;4981730;28;20189;-58
2022/10/10 08:45:11;;;;;;;4.30;3.27;;;;;;;;;;4966448;28;20178;-58
2022/10/10 08:47:57;;;;;;;5.97;3.57;;;;;;;;;;4990168;28;20257;-57
2022/10/10 08:50:25;;;;;;;3.93;3.40;;;;;;;;;;4979809;28;20215;-59
2022/10/10 08:52:58;;;;;;;6.80;4.70;;;;;;;;;;4984499;28;20268;-57
2022/10/10 08:55:42;;;;;;;4.13;3.50;;;;;;;;;;4981547;28;20529;-58
2022/10/10 08:58:11;;;;;;;7.37;4.47;;;;;;;;;;4975964;28;20218;-58
2022/10/10 09:00:39;;;;;;;4.60;4.03;;;;;;;;;;4983729;28;20211;-58
2022/10/10 09:03:14;;;;;;;5.33;3.80;;;;;;;;;;4969073;28;20638;-58
2022/10/10 09:05:40;;;;;;;5.73;4.07;;;;;;;;;;4985474;28;20700;-58
2022/10/10 09:08:25;;;;;;;6.20;4.50;;;;;;;;;;4969436;28;20183;-57
2022/10/10 09:10:54;;;;;;;6.60;4.53;;;;;;;;;;4987373;28;20309;-57
2022/10/10 09:13:20;;;;;;;9.67;3.80;;;;;;;;;;4985513;28;20269;-58
2022/10/10 09:16:05;;;;;;;5.13;3.97;;;;;;;;;;4984717;28;20187;-58
2022/10/10 09:18:49;;;;;;;10.00;4.10;;;;;;;;;;4987373;28;20654;-58
2022/10/10 09:21:21;;;;;;;5.30;4.27;;;;;;;;;;4984749;28;20207;-58
2022/10/10 09:23:51;;;;;;;9.03;4.47;;;;;;;;;;4988084;28;20277;-57
2022/10/10 09:26:23;;;;;;;5.73;4.37;;;;;;;;;;4989911;28;20187;-57
2022/10/10 09:28:52;;;;;;;6.60;4.47;;;;;;;;;;4985652;28;20234;-58
2022/10/10 09:31:26;;;;;;;6.40;4.50;;;;;;;;;;4971005;28;20582;-57
2022/10/10 09:34:00;;;;;;;5.60;4.80;;;;;;;;;;4988292;28;20210;-58
2022/10/10 09:36:31;;;;;;;4.87;4.13;;;;;;;;;;4988908;28;20193;-56
2022/10/10 09:39:01;;;;;;;6.13;3.73;;;;;;;;;;4992900;28;20489;-56
2022/10/10 09:41:35;;;;;;;6.23;4.07;;;;;;;;;;4987946;28;20705;-57
2022/10/10 09:44:04;;;;;;;6.70;4.10;;;;;;;;;;4988532;28;20245;-57
2022/10/10 09:46:30;;;;;;;5.33;4.33;;;;;;;;;;4970675;28;20183;-57
2022/10/10 09:48:57;;;;;;;7.03;4.13;;;;;;;;;;4970531;28;20182;-57
2022/10/10 09:51:23;;;;;;;6.73;4.60;;;;;;;;;;4989157;28;20218;-59
2022/10/10 09:53:50;;;;;;;4.53;3.60;;;;;;;;;;4987542;28;20183;-59
2022/10/10 09:56:21;;;;;;;7.80;4.70;;;;;;;;;;4972308;28;20182;-57
2022/10/10 09:58:48;;;;;;;6.93;3.90;;;;;;;;;;4988435;28;20532;-58
2022/10/10 10:01:22;;;;;;;6.77;3.97;;;;;;;;;;4972255;28;20602;-59
2022/10/10 10:04:08;;;;;;;4.63;3.90;;;;;;;;;;4987755;28;20189;-57
2022/10/10 10:06:35;;;;;;;5.17;3.50;;;;;;;;;;4973823;28;20274;-59
2022/10/10 10:09:05;;;;;;;4.33;3.40;;;;;;;;;;4986615;28;20191;-57
2022/10/10 10:11:33;;;;;;;4.57;3.77;;;;;;;;;;4963779;28;20227;-58
2022/10/10 10:14:06;;;;;;;8.07;4.57;;;;;;;;;;4971029;28;20557;-59
2022/10/10 10:16:37;;;;;;;7.93;3.73;;;;;;;;;;4987304;28;20436;-58
2022/10/10 10:19:03;;;;;;;4.10;3.47;;;;;;;;;;4994517;28;20590;-59
2022/10/10 10:21:30;;;;;;;6.37;4.63;;;;;;;;;;4992061;28;20224;-59
2022/10/10 10:24:18;;;;;;;9.30;4.13;;;;;;;;;;5001296;28;20170;-57
2022/10/10 10:26:46;;;;;;;6.23;3.53;;;;;;;;;;4992929;28;20163;-58
2022/10/10 10:29:29;;;;;;;4.90;3.30;;;;;;;;;;4972444;28;20230;-58
2022/10/10 10:32:07;;;;;;;6.60;3.73;;;;;;;;;;4988962;28;20178;-58
2022/10/10 10:34:33;;;;;;;6.43;4.00;;;;;;;;;;4989693;28;20187;-56
2022/10/10 10:37:20;;;;;;;8.93;3.80;;;;;;;;;;5005158;28;20174;-58
2022/10/10 10:39:55;;;;;;;7.67;3.80;;;;;;;;;;4996600;28;20179;-59
2022/10/10 10:42:34;;;;;;;5.67;3.20;;;;;;;;;;4991681;28;20186;-59
2022/10/10 10:45:13;;;;;;;5.30;3.20;;;;;;;;;;4987916;28;20266;-59
2022/10/10 10:47:52;;;;;;;4.33;3.83;;;;;;;;;;5002239;28;20307;-58
2022/10/10 10:50:21;;;;;;;7.93;4.03;;;;;;;;;;4988223;28;20190;-57
2022/10/10 10:52:56;;;;;;;7.10;3.50;;;;;;;;;;4988820;28;20171;-57
2022/10/10 10:55:45;;;;;;;4.73;3.60;;;;;;;;;;4990720;28;20474;-57
2022/10/10 10:58:11;;;;;;;5.63;3.70;;;;;;;;;;4990790;28;20316;-57
2022/10/10 11:00:44;;;;;;;5.93;3.73;;;;;;;;;;4993543;28;20295;-57
2022/10/10 11:03:16;;;;;;;8.90;4.43;;;;;;;;;;4988783;28;20183;-57
2022/10/10 11:05:45;;;;;;;9.73;3.87;;;;;;;;;;4988332;28;20640;-57
2022/10/10 11:08:20;;;;;;;8.33;4.00;;;;;;;;;;4982850;28;20653;-57
2022/10/10 11:11:05;;;;;;;8.90;3.70;;;;;;;;;;4977120;28;20249;-57
2022/10/10 11:13:39;;;;;;;8.00;2.90;;;;;;;;;;4986556;28;20790;-57
2022/10/10 11:16:32;;;;;;;5.80;3.50;;;;;;;;;;4988240;28;20549;-56
2022/10/10 11:19:27;;;;;;;6.03;3.37;;;;;;;;;;4969336;28;20201;-56
2022/10/10 11:21:57;;;;;;;5.17;3.20;;;;;;;;;;4963993;28;20231;-56
2022/10/10 11:24:35;;;;;;;5.30;3.70;;;;;;;;;;4988282;28;20646;-57
2022/10/10 11:27:05;;;;;;;5.37;3.83;;;;;;;;;;4989983;28;20237;-57
2022/10/10 11:29:39;;;;;;;9.10;3.60;;;;;;;;;;4986474;28;20288;-57
2022/10/10 11:32:14;;;;;;;5.33;3.40;;;;;;;;;;4989205;28;20241;-57
2022/10/10 11:35:01;;;;;;;5.43;3.20;;;;;;;;;;4975743;28;20179;-56
2022/10/10 11:37:29;;;;;;;5.40;3.37;;;;;;;;;;4975513;28;20190;-56
2022/10/10 11:39:57;;;;;;;7.60;3.57;;;;;;;;;;4980550;28;20219;-56
2022/10/10 11:42:23;;;;;;;5.13;3.03;;;;;;;;;;4979799;28;20214;-56
2022/10/10 11:44:56;;;;;;;4.50;3.43;;;;;;;;;;4990267;28;20668;-56
2022/10/10 11:47:28;;;;;;;7.30;3.80;;;;;;;;;;4997399;28;20217;-56
2022/10/10 11:49:54;;;;;;;7.77;3.23;;;;;;;;;;5004088;28;20277;-56
2022/10/10 11:52:23;;;;;;;7.23;3.27;;;;;;;;;;5005155;28;20183;-57
2022/10/10 11:55:07;;;;;;;5.53;3.33;;;;;;;;;;5006411;28;20255;-56
2022/10/10 11:57:39;;;;;;;8.73;4.00;;;;;;;;;;4993016;28;20206;-57
2022/10/10 12:00:07;;;;;;;5.90;3.37;;;;;;;;;;4987800;28;20220;-56
2022/10/10 12:02:35;;;;;;;3.67;2.90;;;;;;;;;;4996301;28;20179;-57
2022/10/10 12:05:04;;;;;;;8.30;3.67;;;;;;;;;;4992950;28;20190;-57
2022/10/10 12:07:34;;;;;;;5.73;2.93;;;;;;;;;;4977890;28;20181;-56
2022/10/10 12:10:05;;;;;;;7.50;3.43;;;;;;;;;;4972279;28;20227;-56
2022/10/10 12:12:37;;;;;;;5.53;3.47;;;;;;;;;;4985574;28;20231;-56
2022/10/10 12:15:05;;;;;;;10.27;3.37;;;;;;;;;;4996253;28;20180;-56
2022/10/10 12:17:35;;;;;;;6.50;2.97;;;;;;;;;;4996738;28;20182;-56
2022/10/10 12:20:31;;;;;;;9.50;3.33;;;;;;;;;;4987228;28;20315;-57
2022/10/10 12:23:19;;;;;;;4.87;3.00;;;;;;;;;;4977217;28;20589;-56
2022/10/10 12:25:46;;;;;;;6.90;3.97;;;;;;;;;;4988004;28;20179;-56
2022/10/10 12:28:12;;;;;;;5.50;3.40;;;;;;;;;;4991411;28;20237;-57
2022/10/10 12:30:54;;;;;;;8.07;3.17;;;;;;;;;;4991491;28;20260;-57
2022/10/10 12:33:24;;;;;;;7.80;2.97;;;;;;;;;;4990837;28;20179;-57
2022/10/10 12:35:51;;;;;;;11.53;3.43;;;;;;;;;;4991599;28;20868;-57
2022/10/10 12:38:21;;;;;;;8.20;3.40;;;;;;;;;;4994561;28;20657;-57
2022/10/10 12:40:57;;;;;;;7.23;3.20;;;;;;;;;;4984885;28;20208;-57
2022/10/10 12:43:25;;;;;;;7.67;3.40;;;;;;;;;;4991966;28;20641;-57
2022/10/10 12:46:10;;;;;;;6.73;3.40;;;;;;;;;;4985794;28;20180;-57
2022/10/10 12:48:36;;;;;;;8.60;3.73;;;;;;;;;;4982195;28;20180;-57
2022/10/10 12:51:02;;;;;;;10.83;4.17;;;;;;;;;;4989162;28;20611;-57
2022/10/10 12:53:31;;;;;;;10.00;3.43;;;;;;;;;;4985859;28;20197;-57
2022/10/10 12:55:59;;;;;;;7.93;3.63;;;;;;;;;;4995974;28;20188;-57
2022/10/10 12:58:30;;;;;;;6.47;3.33;;;;;;;;;;4991535;28;20178;-57
2022/10/10 13:00:58;;;;;;;7.33;3.30;;;;;;;;;;5008468;28;20288;-57
2022/10/10 13:03:28;;;;;;;9.30;3.63;;;;;;;;;;4994292;28;20175;-57
2022/10/10 13:05:55;;;;;;;8.97;4.33;;;;;;;;;;5006544;28;20182;-57
2022/10/10 13:08:26;;;;;;;6.10;3.70;;;;;;;;;;5001852;28;20249;-58
2022/10/10 13:11:12;;;;;;;11.53;3.67;;;;;;;;;;4991975;28;20223;-58
2022/10/10 13:13:39;;;;;;;11.03;4.20;;;;;;;;;;4980986;28;20701;-57
2022/10/10 13:16:08;;;;;;;8.23;4.20;;;;;;;;;;4984082;28;20206;-56
2022/10/10 13:18:35;;;;;;;5.53;3.20;;;;;;;;;;5005990;28;20257;-57
2022/10/10 13:21:02;;;;;;;9.27;3.40;;;;;;;;;;5001757;28;20806;-57
2022/10/10 13:23:29;;;;;;;7.63;3.20;;;;;;;;;;4990399;28;20178;-57
2022/10/10 13:25:55;;;;;;;8.07;4.17;;;;;;;;;;5000391;28;20477;-57
2022/10/10 13:28:22;;;;;;;7.77;3.50;;;;;;;;;;4980038;28;20182;-57
2022/10/10 13:30:49;;;;;;;12.53;4.07;;;;;;;;;;4991948;28;20700;-57
2022/10/10 13:33:19;;;;;;;4.83;3.03;;;;;;;;;;5001902;28;20187;-58
2022/10/10 13:35:46;;;;;;;7.43;3.40;;;;;;;;;;4998861;28;20174;-57
2022/10/10 13:38:14;;;;;;;5.17;3.67;;;;;;;;;;4975561;28;20487;-57
2022/10/10 13:40:43;;;;;;;6.93;3.03;;;;;;;;;;5002834;28;20610;-57
2022/10/10 13:43:13;;;;;;;6.50;3.00;;;;;;;;;;4976961;28;20188;-57
2022/10/10 13:46:15;;;;;;;7.70;3.03;;;;;;;;;;4990947;28;20182;-57
2022/10/10 13:48:41;;;;;;;7.07;3.10;;;;;;;;;;4960797;28;20183;-57
2022/10/10 13:51:07;;;;;;;7.10;3.37;;;;;;;;;;5000969;28;20585;-57
2022/10/10 13:53:52;;;;;;;5.00;3.33;;;;;;;;;;4987499;28;20191;-57
2022/10/10 13:56:22;;;;;;;6.20;3.27;;;;;;;;;;4987067;28;20187;-57
2022/10/10 13:58:53;;;;;;;7.60;3.10;;;;;;;;;;4993218;28;20286;-57
2022/10/10 14:01:33;;;;;;;10.80;4.63;;;;;;;;;;4987244;28;20326;-60
2022/10/10 14:04:20;;;;;;;7.63;3.70;;;;;;;;;;4985837;28;20273;-57
2022/10/10 14:06:52;;;;;;;9.23;3.53;;;;;;;;;;4962065;28;20278;-57
2022/10/10 14:09:19;;;;;;;6.03;3.53;;;;;;;;;;4981359;28;20205;-57
2022/10/10 14:11:45;;;;;;;7.97;3.63;;;;;;;;;;4977397;28;20219;-58
2022/10/10 14:14:17;;;;;;;6.20;3.00;;;;;;;;;;4974913;28;20183;-58
2022/10/10 14:16:43;;;;;;;6.33;3.03;;;;;;;;;;4986358;28;20628;-57
2022/10/10 14:19:21;;;;;;;6.83;3.60;;;;;;;;;;4993718;28;20240;-57
2022/10/10 14:21:48;;;;;;;5.93;3.00;;;;;;;;;;4997749;28;20206;-57
2022/10/10 14:24:14;;;;;;;7.20;3.30;;;;;;;;;;4985567;28;20183;-57
2022/10/10 14:26:41;;;;;;;5.20;3.40;;;;;;;;;;4991643;28;20207;-57
2022/10/10 14:29:11;;;;;;;6.77;3.73;;;;;;;;;;4995497;28;20187;-57
2022/10/10 14:31:37;;;;;;;9.93;3.70;;;;;;;;;;4989467;28;20239;-57
2022/10/10 14:34:03;;;;;;;8.70;3.57;;;;;;;;;;4987849;28;20608;-57
2022/10/10 14:36:29;;;;;;;5.97;3.33;;;;;;;;;;4993399;28;20545;-57
2022/10/10 14:38:55;;;;;;;6.00;3.37;;;;;;;;;;4987872;28;20694;-58
2022/10/10 14:41:22;;;;;;;11.80;4.13;;;;;;;;;;4993705;28;20209;-57
2022/10/10 14:43:48;;;;;;;11.93;4.33;;;;;;;;;;4994252;28;20612;-57
2022/10/10 14:46:18;;;;;;;13.90;7.27;;;;;;;;;;4989351;28;20693;-57
2022/10/10 14:48:44;;;;;;;10.80;6.77;;;;;;;;;;4985568;28;20217;-57
2022/10/10 14:51:11;;;;;;;8.83;6.20;;;;;;;;;;4989705;28;20269;-57
2022/10/10 14:53:38;;;;;;;6.63;5.27;;;;;;;;;;4995968;28;20569;-55
2022/10/10 14:56:04;;;;;;;7.53;4.93;;;;;;;;;;4992783;28;20190;-55